sensor_id;sensor_type;location;lat;lon;timestamp;P1;durP1;ratioP1;P2;durP2;ratioP2
1677;SDS011;6034;46.864;15.216;2024-02-26T06:02:22;2.25;;;1.60;;
1677;SDS011;6034;46.864;15.216;2024-02-26T06:04:49;2.55;;;1.38;;
1677;SDS011;6034;46.864;15.216;2024-02-26T06:07:17;1.67;;;0.98;;
1677;SDS011;6034;46.864;15.216;2024-02-26T06:09:45;4.22;;;1.50;;
1677;SDS011;6034;46.864;15.216;2024-02-26T06:12:14;3.78;;;1.73;;
1677;SDS011;6034;46.864;15.216;2024-02-26T06:14:43;2.92;;;1.60;;
1677;SDS011;6034;46.864;15.216;2024-02-26T06:17:15;2.58;;;1.48;;
1677;SDS011;6034;46.864;15.216;2024-02-26T06:19:45;2.03;;;1.42;;
1677;SDS011;6034;46.864;15.216;2024-02-26T06:22:13;2.45;;;1.20;;
1677;SDS011;6034;46.864;15.216;2024-02-26T06:24:41;1.73;;;1.20;;
1677;SDS011;6034;46.864;15.216;2024-02-26T06:27:08;1.67;;;1.30;;
1677;SDS011;6034;46.864;15.216;2024-02-26T06:29:36;2.60;;;1.35;;
1677;SDS011;6034;46.864;15.216;2024-02-26T06:32:05;1.95;;;1.10;;
1677;SDS011;6034;46.864;15.216;2024-02-26T06:34:33;2.40;;;1.02;;
1677;SDS011;6034;46.864;15.216;2024-02-26T06:37:04;1.83;;;1.30;;
1677;SDS011;6034;46.864;15.216;2024-02-26T06:39:32;2.03;;;1.67;;
1677;SDS011;6034;46.864;15.216;2024-02-26T06:42:01;3.95;;;3.55;;
1677;SDS011;6034;46.864;15.216;2024-02-26T06:44:30;2.95;;;1.95;;
1677;SDS011;6034;46.864;15.216;2024-02-26T06:47:00;3.78;;;2.42;;
1677;SDS011;6034;46.864;15.216;2024-02-26T06:49:30;3.45;;;2.53;;
1677;SDS011;6034;46.864;15.216;2024-02-26T06:51:59;3.65;;;1.65;;
1677;SDS011;6034;46.864;15.216;2024-02-26T06:54:33;4.43;;;2.22;;
1677;SDS011;6034;46.864;15.216;2024-02-26T06:57:11;2.30;;;1.80;;
1677;SDS011;6034;46.864;15.216;2024-02-26T06:59:44;3.10;;;1.50;;
1677;SDS011;6034;46.864;15.216;2024-02-26T07:02:17;3.83;;;1.75;;
1677;SDS011;6034;46.864;15.216;2024-02-26T07:04:49;2.40;;;1.40;;
1677;SDS011;6034;46.864;15.216;2024-02-26T07:07:20;3.58;;;2.00;;
1677;SDS011;6034;46.864;15.216;2024-02-26T07:10:14;2.97;;;1.80;;
1677;SDS011;6034;46.864;15.216;2024-02-26T07:12:44;2.30;;;1.63;;
1677;SDS011;6034;46.864;15.216;2024-02-26T07:15:12;4.35;;;2.00;;
1677;SDS011;6034;46.864;15.216;2024-02-26T07:17:40;2.95;;;1.70;;
1677;SDS011;6034;46.864;15.216;2024-02-26T07:20:12;2.10;;;1.83;;
1677;SDS011;6034;46.864;15.216;2024-02-26T07:22:40;1.80;;;1.38;;
1677;SDS011;6034;46.864;15.216;2024-02-26T07:25:08;2.63;;;1.60;;
1677;SDS011;6034;46.864;15.216;2024-02-26T07:27:40;3.97;;;2.63;;
1677;SDS011;6034;46.864;15.216;2024-02-26T07:30:07;6.13;;;2.38;;
1677;SDS011;6034;46.864;15.216;2024-02-26T07:32:35;2.30;;;1.90;;
1677;SDS011;6034;46.864;15.216;2024-02-26T07:35:03;2.90;;;1.70;;
1677;SDS011;6034;46.864;15.216;2024-02-26T07:37:31;3.92;;;2.05;;
1677;SDS011;6034;46.864;15.216;2024-02-26T07:39:58;3.55;;;2.10;;
1677;SDS011;6034;46.864;15.216;2024-02-26T07:42:26;6.38;;;2.85;;
1677;SDS011;6034;46.864;15.216;2024-02-26T07:44:54;2.67;;;2.08;;
1677;SDS011;6034;46.864;15.216;2024-02-26T07:47:24;5.00;;;2.13;;
1677;SDS011;6034;46.864;15.216;2024-02-26T07:49:51;1.70;;;1.35;;
1677;SDS011;6034;46.864;15.216;2024-02-26T07:52:19;4.57;;;2.65;;
1677;SDS011;6034;46.864;15.216;2024-02-26T07:54:47;4.75;;;3.15;;
1677;SDS011;6034;46.864;15.216;2024-02-26T07:57:15;4.22;;;3.10;;
1677;SDS011;6034;46.864;15.216;2024-02-26T07:59:43;4.00;;;2.67;;
1677;SDS011;6034;46.864;15.216;2024-02-26T08:02:16;3.47;;;2.88;;
1677;SDS011;6034;46.864;15.216;2024-02-26T08:04:43;8.70;;;2.58;;
1677;SDS011;6034;46.864;15.216;2024-02-26T08:07:10;6.15;;;2.42;;
1677;SDS011;6034;46.864;15.216;2024-02-26T08:09:38;2.47;;;2.28;;
1677;SDS011;6034;46.864;15.216;2024-02-26T08:12:06;4.53;;;3.40;;
1677;SDS011;6034;46.864;15.216;2024-02-26T08:14:34;5.10;;;2.75;;
1677;SDS011;6034;46.864;15.216;2024-02-26T08:17:01;3.70;;;3.15;;
1677;SDS011;6034;46.864;15.216;2024-02-26T08:19:30;3.70;;;2.75;;
1677;SDS011;6034;46.864;15.216;2024-02-26T08:21:58;4.45;;;2.28;;
1677;SDS011;6034;46.864;15.216;2024-02-26T08:24:25;4.97;;;2.55;;
1677;SDS011;6034;46.864;15.216;2024-02-26T08:26:52;4.40;;;3.33;;
1677;SDS011;6034;46.864;15.216;2024-02-26T08:29:20;3.35;;;3.05;;
1677;SDS011;6034;46.864;15.216;2024-02-26T08:31:47;4.35;;;2.75;;
1677;SDS011;6034;46.864;15.216;2024-02-26T08:34:15;4.05;;;2.72;;
1677;SDS011;6034;46.864;15.216;2024-02-26T08:36:44;5.07;;;2.90;;
1677;SDS011;6034;46.864;15.216;2024-02-26T08:39:11;5.20;;;2.65;;
1677;SDS011;6034;46.864;15.216;2024-02-26T08:41:45;3.33;;;2.90;;
1677;SDS011;6034;46.864;15.216;2024-02-26T08:44:12;5.20;;;2.80;;
1677;SDS011;6034;46.864;15.216;2024-02-26T08:46:39;3.78;;;2.33;;
1677;SDS011;6034;46.864;15.216;2024-02-26T08:49:06;3.88;;;2.50;;
1677;SDS011;6034;46.864;15.216;2024-02-26T08:51:34;2.63;;;2.10;;
1677;SDS011;6034;46.864;15.216;2024-02-26T08:54:03;4.25;;;2.75;;
1677;SDS011;6034;46.864;15.216;2024-02-26T08:56:30;3.25;;;2.42;;
1677;SDS011;6034;46.864;15.216;2024-02-26T08:58:57;4.15;;;2.40;;
1677;SDS011;6034;46.864;15.216;2024-02-26T09:01:29;2.58;;;1.98;;
1677;SDS011;6034;46.864;15.216;2024-02-26T09:03:56;4.05;;;2.72;;
1677;SDS011;6034;46.864;15.216;2024-02-26T09:06:23;2.58;;;2.00;;
1677;SDS011;6034;46.864;15.216;2024-02-26T09:08:51;3.95;;;2.10;;
1677;SDS011;6034;46.864;15.216;2024-02-26T09:11:20;3.47;;;2.30;;
1677;SDS011;6034;46.864;15.216;2024-02-26T09:13:47;4.00;;;1.85;;
1677;SDS011;6034;46.864;15.216;2024-02-26T09:16:14;2.75;;;1.90;;
1677;SDS011;6034;46.864;15.216;2024-02-26T09:18:42;2.95;;;1.40;;
1677;SDS011;6034;46.864;15.216;2024-02-26T09:21:09;2.90;;;1.50;;
1677;SDS011;6034;46.864;15.216;2024-02-26T09:23:36;3.92;;;2.10;;
1677;SDS011;6034;46.864;15.216;2024-02-26T09:26:05;2.25;;;1.50;;
1677;SDS011;6034;46.864;15.216;2024-02-26T09:28:34;6.07;;;1.30;;
1677;SDS011;6034;46.864;15.216;2024-02-26T09:31:04;2.65;;;1.77;;
1677;SDS011;6034;46.864;15.216;2024-02-26T09:33:31;2.10;;;1.48;;
1677;SDS011;6034;46.864;15.216;2024-02-26T09:35:59;2.70;;;2.00;;
1677;SDS011;6034;46.864;15.216;2024-02-26T09:38:27;2.17;;;1.58;;
1677;SDS011;6034;46.864;15.216;2024-02-26T09:40:55;3.63;;;1.60;;
1677;SDS011;6034;46.864;15.216;2024-02-26T09:43:23;3.15;;;1.30;;
1677;SDS011;6034;46.864;15.216;2024-02-26T09:45:52;2.97;;;1.80;;
1677;SDS011;6034;46.864;15.216;2024-02-26T09:48:21;2.90;;;1.15;;
1677;SDS011;6034;46.864;15.216;2024-02-26T09:50:50;2.70;;;1.70;;
1677;SDS011;6034;46.864;15.216;2024-02-26T09:53:18;3.88;;;2.08;;
1677;SDS011;6034;46.864;15.216;2024-02-26T09:55:48;3.15;;;1.65;;
1677;SDS011;6034;46.864;15.216;2024-02-26T09:58:16;4.30;;;1.90;;
1677;SDS011;6034;46.864;15.216;2024-02-26T10:00:46;2.00;;;1.50;;
1677;SDS011;6034;46.864;15.216;2024-02-26T10:03:19;2.22;;;1.80;;
1677;SDS011;6034;46.864;15.216;2024-02-26T10:05:52;2.35;;;1.42;;
1677;SDS011;6034;46.864;15.216;2024-02-26T10:08:21;2.88;;;1.60;;
1677;SDS011;6034;46.864;15.216;2024-02-26T10:10:48;2.28;;;1.55;;
1677;SDS011;6034;46.864;15.216;2024-02-26T10:13:17;2.38;;;1.90;;
1677;SDS011;6034;46.864;15.216;2024-02-26T10:15:45;3.75;;;1.70;;
1677;SDS011;6034;46.864;15.216;2024-02-26T10:18:13;5.35;;;2.13;;
1677;SDS011;6034;46.864;15.216;2024-02-26T10:20:42;2.05;;;1.40;;
1677;SDS011;6034;46.864;15.216;2024-02-26T10:23:09;3.05;;;1.98;;
1677;SDS011;6034;46.864;15.216;2024-02-26T10:25:37;3.13;;;1.70;;
1677;SDS011;6034;46.864;15.216;2024-02-26T10:28:20;3.15;;;2.17;;
1677;SDS011;6034;46.864;15.216;2024-02-26T10:30:48;2.55;;;1.80;;
1677;SDS011;6034;46.864;15.216;2024-02-26T10:33:18;3.58;;;1.90;;
1677;SDS011;6034;46.864;15.216;2024-02-26T10:35:47;2.70;;;1.80;;
1677;SDS011;6034;46.864;15.216;2024-02-26T10:38:15;2.95;;;1.80;;
1677;SDS011;6034;46.864;15.216;2024-02-26T10:40:45;2.33;;;1.70;;
1677;SDS011;6034;46.864;15.216;2024-02-26T10:43:15;5.38;;;1.67;;
1677;SDS011;6034;46.864;15.216;2024-02-26T10:45:43;2.47;;;1.85;;
1677;SDS011;6034;46.864;15.216;2024-02-26T10:48:13;2.00;;;1.80;;
1677;SDS011;6034;46.864;15.216;2024-02-26T10:50:42;2.08;;;1.35;;
1677;SDS011;6034;46.864;15.216;2024-02-26T10:53:15;3.78;;;1.45;;
1677;SDS011;6034;46.864;15.216;2024-02-26T10:55:45;2.13;;;1.50;;
1677;SDS011;6034;46.864;15.216;2024-02-26T10:58:16;3.35;;;1.77;;
1677;SDS011;6034;46.864;15.216;2024-02-26T11:00:45;3.08;;;1.42;;
1677;SDS011;6034;46.864;15.216;2024-02-26T11:03:13;1.98;;;1.42;;
1677;SDS011;6034;46.864;15.216;2024-02-26T11:08:15;2.42;;;1.45;;
1677;SDS011;6034;46.864;15.216;2024-02-26T11:10:44;3.10;;;1.50;;
1677;SDS011;6034;46.864;15.216;2024-02-26T11:13:14;2.75;;;1.85;;
1677;SDS011;6034;46.864;15.216;2024-02-26T11:15:44;4.65;;;2.50;;
1677;SDS011;6034;46.864;15.216;2024-02-26T11:18:14;3.20;;;1.70;;
1677;SDS011;6034;46.864;15.216;2024-02-26T11:20:42;2.50;;;1.52;;
1677;SDS011;6034;46.864;15.216;2024-02-26T11:23:11;3.08;;;1.60;;
1677;SDS011;6034;46.864;15.216;2024-02-26T11:25:39;3.35;;;1.90;;
1677;SDS011;6034;46.864;15.216;2024-02-26T11:28:08;3.08;;;1.50;;
1677;SDS011;6034;46.864;15.216;2024-02-26T11:30:39;2.10;;;1.60;;
1677;SDS011;6034;46.864;15.216;2024-02-26T11:33:09;2.88;;;1.67;;
1677;SDS011;6034;46.864;15.216;2024-02-26T11:35:38;4.07;;;1.60;;
1677;SDS011;6034;46.864;15.216;2024-02-26T11:38:06;3.88;;;2.05;;
1677;SDS011;6034;46.864;15.216;2024-02-26T11:40:37;2.95;;;1.48;;
1677;SDS011;6034;46.864;15.216;2024-02-26T11:43:07;5.65;;;1.60;;
1677;SDS011;6034;46.864;15.216;2024-02-26T11:45:50;7.45;;;1.70;;
1677;SDS011;6034;46.864;15.216;2024-02-26T11:48:22;2.42;;;1.75;;
1677;SDS011;6034;46.864;15.216;2024-02-26T11:50:51;2.35;;;1.60;;
1677;SDS011;6034;46.864;15.216;2024-02-26T11:53:19;2.97;;;1.60;;
1677;SDS011;6034;46.864;15.216;2024-02-26T11:58:49;2.58;;;1.58;;
1677;SDS011;6034;46.864;15.216;2024-02-26T12:01:35;2.72;;;1.60;;
1677;SDS011;6034;46.864;15.216;2024-02-26T12:04:07;2.03;;;1.30;;
1677;SDS011;6034;46.864;15.216;2024-02-26T12:06:44;5.88;;;1.40;;
1677;SDS011;6034;46.864;15.216;2024-02-26T12:09:17;2.88;;;1.33;;
1677;SDS011;6034;46.864;15.216;2024-02-26T12:12:02;2.60;;;1.40;;
1677;SDS011;6034;46.864;15.216;2024-02-26T12:14:32;3.13;;;1.75;;
1677;SDS011;6034;46.864;15.216;2024-02-26T12:17:01;5.13;;;1.95;;
1677;SDS011;6034;46.864;15.216;2024-02-26T12:19:32;2.05;;;1.40;;
1677;SDS011;6034;46.864;15.216;2024-02-26T12:22:01;2.38;;;1.40;;
1677;SDS011;6034;46.864;15.216;2024-02-26T12:24:29;2.95;;;1.60;;
1677;SDS011;6034;46.864;15.216;2024-02-26T12:26:56;2.15;;;1.33;;
1677;SDS011;6034;46.864;15.216;2024-02-26T12:29:25;2.20;;;1.40;;
1677;SDS011;6034;46.864;15.216;2024-02-26T12:31:52;1.80;;;1.10;;
1677;SDS011;6034;46.864;15.216;2024-02-26T12:34:21;2.35;;;1.25;;
1677;SDS011;6034;46.864;15.216;2024-02-26T12:36:49;2.10;;;1.40;;
1677;SDS011;6034;46.864;15.216;2024-02-26T12:39:18;2.78;;;1.30;;
1677;SDS011;6034;46.864;15.216;2024-02-26T12:41:46;2.08;;;1.30;;
1677;SDS011;6034;46.864;15.216;2024-02-26T12:44:14;2.25;;;1.42;;
1677;SDS011;6034;46.864;15.216;2024-02-26T12:46:43;1.95;;;1.00;;
1677;SDS011;6034;46.864;15.216;2024-02-26T12:49:14;2.80;;;1.50;;
1677;SDS011;6034;46.864;15.216;2024-02-26T12:51:43;2.70;;;1.52;;
1677;SDS011;6034;46.864;15.216;2024-02-26T12:54:11;4.78;;;1.45;;
1677;SDS011;6034;46.864;15.216;2024-02-26T12:56:39;4.55;;;1.50;;
1677;SDS011;6034;46.864;15.216;2024-02-26T12:59:08;2.08;;;1.60;;
1677;SDS011;6034;46.864;15.216;2024-02-26T13:01:35;2.85;;;1.23;;
1677;SDS011;6034;46.864;15.216;2024-02-26T13:04:05;2.42;;;1.02;;
1677;SDS011;6034;46.864;15.216;2024-02-26T13:06:33;2.20;;;1.02;;
1677;SDS011;6034;46.864;15.216;2024-02-26T13:09:01;3.35;;;1.30;;
1677;SDS011;6034;46.864;15.216;2024-02-26T13:11:29;5.43;;;1.25;;
1677;SDS011;6034;46.864;15.216;2024-02-26T13:13:57;1.90;;;1.10;;
1677;SDS011;6034;46.864;15.216;2024-02-26T13:16:25;5.13;;;1.50;;
1677;SDS011;6034;46.864;15.216;2024-02-26T13:18:53;3.95;;;1.50;;
1677;SDS011;6034;46.864;15.216;2024-02-26T13:21:21;1.50;;;1.10;;
1677;SDS011;6034;46.864;15.216;2024-02-26T13:23:51;2.80;;;1.17;;
1677;SDS011;6034;46.864;15.216;2024-02-26T13:26:21;1.90;;;1.17;;
1677;SDS011;6034;46.864;15.216;2024-02-26T13:29:00;3.75;;;1.23;;
1677;SDS011;6034;46.864;15.216;2024-02-26T13:31:28;7.93;;;1.48;;
1677;SDS011;6034;46.864;15.216;2024-02-26T13:33:56;2.83;;;1.30;;
1677;SDS011;6034;46.864;15.216;2024-02-26T13:36:25;2.80;;;1.50;;
1677;SDS011;6034;46.864;15.216;2024-02-26T13:38:52;2.33;;;1.55;;
1677;SDS011;6034;46.864;15.216;2024-02-26T13:41:20;3.40;;;1.42;;
1677;SDS011;6034;46.864;15.216;2024-02-26T13:43:48;1.67;;;1.30;;
1677;SDS011;6034;46.864;15.216;2024-02-26T13:46:15;2.75;;;1.65;;
1677;SDS011;6034;46.864;15.216;2024-02-26T13:48:43;1.80;;;1.25;;
1677;SDS011;6034;46.864;15.216;2024-02-26T13:51:10;3.42;;;1.90;;
1677;SDS011;6034;46.864;15.216;2024-02-26T13:53:39;3.40;;;1.60;;
1677;SDS011;6034;46.864;15.216;2024-02-26T13:56:07;5.03;;;1.65;;
1677;SDS011;6034;46.864;15.216;2024-02-26T13:58:34;2.42;;;1.50;;
1677;SDS011;6034;46.864;15.216;2024-02-26T14:01:02;2.45;;;1.63;;
1677;SDS011;6034;46.864;15.216;2024-02-26T14:03:30;2.22;;;1.67;;
1677;SDS011;6034;46.864;15.216;2024-02-26T14:05:58;2.20;;;1.40;;
1677;SDS011;6034;46.864;15.216;2024-02-26T14:08:25;2.33;;;1.30;;
1677;SDS011;6034;46.864;15.216;2024-02-26T14:10:54;5.45;;;1.85;;
1677;SDS011;6034;46.864;15.216;2024-02-26T14:13:22;2.97;;;1.92;;
1677;SDS011;6034;46.864;15.216;2024-02-26T14:15:51;1.80;;;1.20;;
1677;SDS011;6034;46.864;15.216;2024-02-26T14:18:18;4.70;;;2.38;;
1677;SDS011;6034;46.864;15.216;2024-02-26T14:20:46;4.25;;;1.98;;
1677;SDS011;6034;46.864;15.216;2024-02-26T14:23:13;3.15;;;1.85;;
1677;SDS011;6034;46.864;15.216;2024-02-26T14:25:41;1.85;;;1.10;;
1677;SDS011;6034;46.864;15.216;2024-02-26T14:28:10;3.17;;;2.20;;
1677;SDS011;6034;46.864;15.216;2024-02-26T14:30:37;3.47;;;1.52;;
1677;SDS011;6034;46.864;15.216;2024-02-26T14:33:05;2.88;;;1.55;;
1677;SDS011;6034;46.864;15.216;2024-02-26T14:35:32;3.80;;;1.40;;
1677;SDS011;6034;46.864;15.216;2024-02-26T14:38:00;1.70;;;1.25;;
1677;SDS011;6034;46.864;15.216;2024-02-26T14:40:27;1.65;;;1.25;;
1677;SDS011;6034;46.864;15.216;2024-02-26T14:42:55;4.88;;;1.83;;
1677;SDS011;6034;46.864;15.216;2024-02-26T14:45:26;3.63;;;1.10;;
1677;SDS011;6034;46.864;15.216;2024-02-26T14:47:55;1.83;;;1.10;;
1677;SDS011;6034;46.864;15.216;2024-02-26T14:50:24;3.25;;;1.98;;
1677;SDS011;6034;46.864;15.216;2024-02-26T14:52:52;1.48;;;1.05;;
1677;SDS011;6034;46.864;15.216;2024-02-26T14:55:19;2.10;;;1.05;;
1677;SDS011;6034;46.864;15.216;2024-02-26T14:57:47;3.67;;;1.48;;
1677;SDS011;6034;46.864;15.216;2024-02-26T15:00:14;3.05;;;1.67;;
1677;SDS011;6034;46.864;15.216;2024-02-26T15:02:43;2.17;;;1.20;;
1677;SDS011;6034;46.864;15.216;2024-02-26T15:05:11;3.65;;;1.88;;
1677;SDS011;6034;46.864;15.216;2024-02-26T15:07:39;4.35;;;1.85;;
1677;SDS011;6034;46.864;15.216;2024-02-26T15:10:06;3.30;;;1.55;;
1677;SDS011;6034;46.864;15.216;2024-02-26T15:12:34;2.30;;;1.60;;
1677;SDS011;6034;46.864;15.216;2024-02-26T15:15:02;1.95;;;1.40;;
1677;SDS011;6034;46.864;15.216;2024-02-26T15:17:31;3.22;;;1.77;;
1677;SDS011;6034;46.864;15.216;2024-02-26T15:20:01;3.05;;;1.23;;
1677;SDS011;6034;46.864;15.216;2024-02-26T15:22:30;2.38;;;1.67;;
1677;SDS011;6034;46.864;15.216;2024-02-26T15:24:58;1.95;;;1.58;;
1677;SDS011;6034;46.864;15.216;2024-02-26T15:27:25;1.95;;;1.23;;
1677;SDS011;6034;46.864;15.216;2024-02-26T15:29:52;3.53;;;1.23;;
1677;SDS011;6034;46.864;15.216;2024-02-26T15:32:23;2.13;;;1.55;;
1677;SDS011;6034;46.864;15.216;2024-02-26T15:34:52;3.83;;;2.92;;
1677;SDS011;6034;46.864;15.216;2024-02-26T15:37:20;3.30;;;2.15;;
1677;SDS011;6034;46.864;15.216;2024-02-26T15:39:48;3.70;;;1.63;;
1677;SDS011;6034;46.864;15.216;2024-02-26T15:42:15;4.47;;;1.60;;
1677;SDS011;6034;46.864;15.216;2024-02-26T15:44:43;2.33;;;1.63;;
1677;SDS011;6034;46.864;15.216;2024-02-26T15:47:11;3.38;;;2.30;;
1677;SDS011;6034;46.864;15.216;2024-02-26T15:49:38;5.38;;;2.70;;
1677;SDS011;6034;46.864;15.216;2024-02-26T15:52:06;2.92;;;2.13;;
1677;SDS011;6034;46.864;15.216;2024-02-26T15:54:38;2.63;;;2.20;;
1677;SDS011;6034;46.864;15.216;2024-02-26T15:57:06;6.30;;;4.30;;
1677;SDS011;6034;46.864;15.216;2024-02-26T15:59:35;6.57;;;3.30;;
1677;SDS011;6034;46.864;15.216;2024-02-26T16:02:03;5.43;;;3.55;;
1677;SDS011;6034;46.864;15.216;2024-02-26T16:04:30;3.78;;;3.00;;
1677;SDS011;6034;46.864;15.216;2024-02-26T16:06:58;3.70;;;2.20;;
1677;SDS011;6034;46.864;15.216;2024-02-26T16:09:29;4.47;;;2.75;;
1677;SDS011;6034;46.864;15.216;2024-02-26T16:11:58;5.05;;;2.40;;
1677;SDS011;6034;46.864;15.216;2024-02-26T16:14:31;3.25;;;2.30;;
1677;SDS011;6034;46.864;15.216;2024-02-26T16:17:15;3.58;;;2.05;;
1677;SDS011;6034;46.864;15.216;2024-02-26T16:19:45;4.28;;;2.55;;
1677;SDS011;6034;46.864;15.216;2024-02-26T16:22:13;3.85;;;2.72;;
1677;SDS011;6034;46.864;15.216;2024-02-26T16:24:40;4.65;;;2.72;;
1677;SDS011;6034;46.864;15.216;2024-02-26T16:27:09;2.95;;;1.85;;
1677;SDS011;6034;46.864;15.216;2024-02-26T16:29:36;3.63;;;2.25;;
1677;SDS011;6034;46.864;15.216;2024-02-26T16:32:04;5.13;;;2.53;;
1677;SDS011;6034;46.864;15.216;2024-02-26T16:34:33;3.88;;;2.55;;
1677;SDS011;6034;46.864;15.216;2024-02-26T16:39:35;2.97;;;2.00;;
1677;SDS011;6034;46.864;15.216;2024-02-26T16:42:03;5.43;;;3.90;;
1677;SDS011;6034;46.864;15.216;2024-02-26T16:44:34;4.60;;;2.30;;
1677;SDS011;6034;46.864;15.216;2024-02-26T16:47:02;3.10;;;2.10;;
1677;SDS011;6034;46.864;15.216;2024-02-26T16:49:30;3.38;;;2.22;;
1677;SDS011;6034;46.864;15.216;2024-02-26T16:51:57;3.58;;;1.92;;
1677;SDS011;6034;46.864;15.216;2024-02-26T16:54:24;3.05;;;2.05;;
1677;SDS011;6034;46.864;15.216;2024-02-26T16:56:52;4.60;;;2.65;;
1677;SDS011;6034;46.864;15.216;2024-02-26T16:59:20;1.95;;;1.40;;
1677;SDS011;6034;46.864;15.216;2024-02-26T17:01:54;3.03;;;1.70;;
1677;SDS011;6034;46.864;15.216;2024-02-26T17:04:24;5.47;;;2.08;;
1677;SDS011;6034;46.864;15.216;2024-02-26T17:06:52;2.05;;;1.52;;
1677;SDS011;6034;46.864;15.216;2024-02-26T17:09:20;4.20;;;1.42;;
1677;SDS011;6034;46.864;15.216;2024-02-26T17:11:48;2.20;;;1.40;;
1677;SDS011;6034;46.864;15.216;2024-02-26T17:14:18;2.83;;;1.60;;
1677;SDS011;6034;46.864;15.216;2024-02-26T17:16:47;2.53;;;1.35;;
1677;SDS011;6034;46.864;15.216;2024-02-26T17:19:15;2.50;;;1.30;;
1677;SDS011;6034;46.864;15.216;2024-02-26T17:21:44;2.25;;;1.40;;
1677;SDS011;6034;46.864;15.216;2024-02-26T17:24:11;2.40;;;1.48;;
1677;SDS011;6034;46.864;15.216;2024-02-26T17:26:39;4.60;;;3.00;;
1677;SDS011;6034;46.864;15.216;2024-02-26T17:29:06;5.28;;;3.45;;
1677;SDS011;6034;46.864;15.216;2024-02-26T17:31:35;3.28;;;2.35;;
1677;SDS011;6034;46.864;15.216;2024-02-26T17:34:07;2.45;;;2.22;;
1677;SDS011;6034;46.864;15.216;2024-02-26T17:36:36;3.00;;;2.00;;
1677;SDS011;6034;46.864;15.216;2024-02-26T17:39:05;2.92;;;2.00;;
1677;SDS011;6034;46.864;15.216;2024-02-26T17:41:32;4.40;;;2.10;;
1677;SDS011;6034;46.864;15.216;2024-02-26T17:44:00;3.80;;;1.90;;
1677;SDS011;6034;46.864;15.216;2024-02-26T17:46:27;4.63;;;2.38;;
1677;SDS011;6034;46.864;15.216;2024-02-26T17:48:54;2.55;;;1.92;;
1677;SDS011;6034;46.864;15.216;2024-02-26T17:51:22;3.00;;;2.35;;
1677;SDS011;6034;46.864;15.216;2024-02-26T17:53:51;2.50;;;2.20;;
1677;SDS011;6034;46.864;15.216;2024-02-26T17:56:20;3.17;;;2.03;;
1677;SDS011;6034;46.864;15.216;2024-02-26T17:58:47;2.75;;;2.03;;
1677;SDS011;6034;46.864;15.216;2024-02-26T18:01:15;2.47;;;1.83;;
1677;SDS011;6034;46.864;15.216;2024-02-26T18:03:42;4.63;;;3.10;;
1677;SDS011;6034;46.864;15.216;2024-02-26T18:06:10;3.60;;;2.88;;
1677;SDS011;6034;46.864;15.216;2024-02-26T18:08:37;3.92;;;2.47;;
1677;SDS011;6034;46.864;15.216;2024-02-26T18:11:06;3.20;;;2.30;;
1677;SDS011;6034;46.864;15.216;2024-02-26T18:13:35;3.10;;;2.10;;
1677;SDS011;6034;46.864;15.216;2024-02-26T18:16:06;3.95;;;1.70;;
1677;SDS011;6034;46.864;15.216;2024-02-26T18:18:34;4.85;;;1.73;;
1677;SDS011;6034;46.864;15.216;2024-02-26T18:21:02;3.28;;;1.90;;
1677;SDS011;6034;46.864;15.216;2024-02-26T18:23:31;3.05;;;1.83;;
1677;SDS011;6034;46.864;15.216;2024-02-26T18:25:59;2.53;;;2.00;;
1677;SDS011;6034;46.864;15.216;2024-02-26T18:28:29;3.33;;;2.28;;
1677;SDS011;6034;46.864;15.216;2024-02-26T18:30:57;4.07;;;2.85;;
1677;SDS011;6034;46.864;15.216;2024-02-26T18:33:27;5.50;;;4.45;;
1677;SDS011;6034;46.864;15.216;2024-02-26T18:35:56;3.80;;;3.03;;
1677;SDS011;6034;46.864;15.216;2024-02-26T18:38:25;4.53;;;2.42;;
1677;SDS011;6034;46.864;15.216;2024-02-26T18:40:53;3.22;;;2.42;;
1677;SDS011;6034;46.864;15.216;2024-02-26T18:43:22;4.07;;;2.50;;
1677;SDS011;6034;46.864;15.216;2024-02-26T18:45:54;3.90;;;2.47;;
1677;SDS011;6034;46.864;15.216;2024-02-26T18:48:24;3.65;;;2.70;;
1677;SDS011;6034;46.864;15.216;2024-02-26T18:50:53;3.03;;;2.20;;
1677;SDS011;6034;46.864;15.216;2024-02-26T18:53:22;5.68;;;2.35;;
1677;SDS011;6034;46.864;15.216;2024-02-26T18:55:51;3.55;;;2.40;;
1677;SDS011;6034;46.864;15.216;2024-02-26T18:58:20;4.50;;;1.80;;
1677;SDS011;6034;46.864;15.216;2024-02-26T19:00:49;2.78;;;2.33;;
1677;SDS011;6034;46.864;15.216;2024-02-26T19:03:21;3.33;;;2.50;;
1677;SDS011;6034;46.864;15.216;2024-02-26T19:05:50;4.78;;;2.65;;
1677;SDS011;6034;46.864;15.216;2024-02-26T19:08:20;3.92;;;2.25;;
1677;SDS011;6034;46.864;15.216;2024-02-26T19:10:49;5.95;;;2.17;;
1677;SDS011;6034;46.864;15.216;2024-02-26T19:13:20;3.83;;;2.45;;
1677;SDS011;6034;46.864;15.216;2024-02-26T19:15:58;2.78;;;1.85;;
1677;SDS011;6034;46.864;15.216;2024-02-26T19:18:30;3.20;;;2.03;;
1677;SDS011;6034;46.864;15.216;2024-02-26T19:21:02;3.03;;;2.05;;
1677;SDS011;6034;46.864;15.216;2024-02-26T19:23:35;2.90;;;2.05;;
1677;SDS011;6034;46.864;15.216;2024-02-26T19:26:05;2.97;;;1.90;;
1677;SDS011;6034;46.864;15.216;2024-02-26T19:28:39;4.45;;;2.78;;
1677;SDS011;6034;46.864;15.216;2024-02-26T19:31:10;3.42;;;2.38;;
1677;SDS011;6034;46.864;15.216;2024-02-26T19:33:43;3.95;;;1.90;;
1677;SDS011;6034;46.864;15.216;2024-02-26T19:36:12;2.65;;;1.95;;
1677;SDS011;6034;46.864;15.216;2024-02-26T19:38:42;4.25;;;2.20;;
1677;SDS011;6034;46.864;15.216;2024-02-26T19:41:11;3.85;;;2.10;;
1677;SDS011;6034;46.864;15.216;2024-02-26T19:43:41;2.95;;;1.98;;
1677;SDS011;6034;46.864;15.216;2024-02-26T19:46:10;3.13;;;2.00;;
1677;SDS011;6034;46.864;15.216;2024-02-26T19:48:43;2.10;;;1.63;;
1677;SDS011;6034;46.864;15.216;2024-02-26T19:51:15;5.05;;;2.20;;
1677;SDS011;6034;46.864;15.216;2024-02-26T19:53:46;6.70;;;1.90;;
1677;SDS011;6034;46.864;15.216;2024-02-26T19:56:17;2.40;;;1.85;;
1677;SDS011;6034;46.864;15.216;2024-02-26T19:58:47;2.55;;;1.50;;
1677;SDS011;6034;46.864;15.216;2024-02-26T20:01:16;2.30;;;1.65;;
1677;SDS011;6034;46.864;15.216;2024-02-26T20:03:49;3.80;;;2.47;;
1677;SDS011;6034;46.864;15.216;2024-02-26T20:06:20;3.08;;;1.95;;
1677;SDS011;6034;46.864;15.216;2024-02-26T20:08:53;2.63;;;1.73;;
1677;SDS011;6034;46.864;15.216;2024-02-26T20:11:28;2.15;;;1.40;;
1677;SDS011;6034;46.864;15.216;2024-02-26T20:13:57;2.58;;;1.70;;
1677;SDS011;6034;46.864;15.216;2024-02-26T20:16:28;3.50;;;2.20;;
1677;SDS011;6034;46.864;15.216;2024-02-26T20:19:00;3.05;;;2.00;;
1677;SDS011;6034;46.864;15.216;2024-02-26T20:21:34;2.40;;;1.63;;
1677;SDS011;6034;46.864;15.216;2024-02-26T20:24:06;3.17;;;1.70;;
1677;SDS011;6034;46.864;15.216;2024-02-26T20:26:36;4.07;;;2.20;;
1677;SDS011;6034;46.864;15.216;2024-02-26T20:29:09;4.80;;;2.00;;
1677;SDS011;6034;46.864;15.216;2024-02-26T20:31:39;3.13;;;1.95;;
1677;SDS011;6034;46.864;15.216;2024-02-26T20:34:15;2.65;;;1.55;;
1677;SDS011;6034;46.864;15.216;2024-02-26T20:36:44;3.05;;;1.92;;
1677;SDS011;6034;46.864;15.216;2024-02-26T20:39:13;3.00;;;1.75;;
1677;SDS011;6034;46.864;15.216;2024-02-26T20:41:43;2.75;;;1.60;;
1677;SDS011;6034;46.864;15.216;2024-02-26T20:44:12;3.95;;;2.15;;
1677;SDS011;6034;46.864;15.216;2024-02-26T20:46:42;4.07;;;1.77;;
1677;SDS011;6034;46.864;15.216;2024-02-26T20:49:12;2.85;;;1.55;;
1677;SDS011;6034;46.864;15.216;2024-02-26T20:51:43;5.30;;;1.70;;
1677;SDS011;6034;46.864;15.216;2024-02-26T20:54:13;2.63;;;1.58;;
1677;SDS011;6034;46.864;15.216;2024-02-26T20:56:43;3.08;;;1.60;;
1677;SDS011;6034;46.864;15.216;2024-02-26T20:59:12;3.15;;;1.40;;
1677;SDS011;6034;46.864;15.216;2024-02-26T21:01:42;5.32;;;1.33;;
1677;SDS011;6034;46.864;15.216;2024-02-26T21:04:11;2.33;;;1.00;;
1677;SDS011;6034;46.864;15.216;2024-02-26T21:06:40;1.80;;;1.00;;
1677;SDS011;6034;46.864;15.216;2024-02-26T21:09:10;1.38;;;0.63;;
1677;SDS011;6034;46.864;15.216;2024-02-26T21:11:38;1.55;;;0.95;;
1677;SDS011;6034;46.864;15.216;2024-02-26T21:14:06;3.10;;;1.48;;
1677;SDS011;6034;46.864;15.216;2024-02-26T21:16:34;3.15;;;1.00;;
1677;SDS011;6034;46.864;15.216;2024-02-26T21:19:03;2.38;;;2.17;;
1677;SDS011;6034;46.864;15.216;2024-02-26T21:21:32;7.07;;;1.50;;